Wildwood, New Jersey
Current Conditions -  °F | °C
As of 1:55 AM on Friday 28 Nov 2014 (Local Time) from KWWD Reporting Station
Overcast Overcast  
Wind Chill: 31°   Ceiling: 5000
Heat Index: 37°   Visibility: 10mi
Dew Point: 27°   Wind: 9mph
Humidity: 65%   Direction: 320°NW
Pressure: 30.11"   Gusts: NA
Location:  38.99°N, 74.81°W
Report Text: KWWD 280655Z AUTO 32008KT 10SM SCT042 OVC050 03/M03 A3011 RMK AO1
Loading
Personal Weather Stations






























Interactive Weather Map New forecast layout! Learn more

10-Day Weather Forecast

Advertisements
Track Severe Weather on mobile